createdAt,value
2019-03-18T00:03:29.187Z,1.77
2019-03-18T00:08:34.588Z,1.97
2019-03-18T00:13:39.729Z,1.50
2019-03-18T00:18:44.977Z,1.50
2019-03-18T00:23:50.346Z,1.50
2019-03-18T00:28:55.515Z,1.30
2019-03-18T00:34:00.968Z,1.50
2019-03-18T00:39:08.028Z,1.30
2019-03-18T00:44:13.223Z,1.27
2019-03-18T00:49:18.458Z,1.07
2019-03-18T00:54:23.723Z,1.03
2019-03-18T00:59:28.689Z,1.40
2019-03-18T01:04:33.569Z,1.20
2019-03-18T01:09:38.816Z,1.60
2019-03-18T01:14:43.978Z,1.30
2019-03-18T01:19:52.090Z,1.37
2019-03-18T01:24:57.025Z,1.43
2019-03-18T01:30:02.461Z,1.33
2019-03-18T01:35:08.204Z,1.10
2019-03-18T01:40:13.231Z,1.20
2019-03-18T01:45:18.393Z,1.10
2019-03-18T01:50:23.815Z,1.00
2019-03-18T01:55:29.055Z,1.00
2019-03-18T02:00:34.384Z,1.10
2019-03-18T02:05:39.337Z,1.10
2019-03-18T02:10:44.398Z,1.00
2019-03-18T02:15:53.574Z,1.00
2019-03-18T02:20:56.293Z,0.93
2019-03-18T02:26:01.470Z,0.80
2019-03-18T02:31:06.455Z,1.07
2019-03-18T02:36:11.354Z,1.10
2019-03-18T02:41:16.661Z,1.10
2019-03-18T02:46:22.722Z,0.90
2019-03-18T02:51:27.877Z,1.20
2019-03-18T02:56:32.920Z,0.90
2019-03-18T03:01:38.059Z,1.27
2019-03-18T03:06:43.269Z,1.20
2019-03-18T03:11:48.182Z,1.40
2019-03-18T03:16:53.406Z,1.17
2019-03-18T03:21:58.375Z,1.30
2019-03-18T03:27:03.605Z,1.10
2019-03-18T03:32:08.518Z,1.17
2019-03-18T03:37:13.464Z,1.03
2019-03-18T03:42:18.947Z,1.00
2019-03-18T03:47:24.175Z,1.00
2019-03-18T03:52:29.135Z,1.00
2019-03-18T03:57:34.042Z,1.13
2019-03-18T04:02:39.337Z,1.00
2019-03-18T04:07:44.589Z,1.07
2019-03-18T04:12:49.907Z,1.00
2019-03-18T04:17:54.910Z,1.00
2019-03-18T04:22:59.946Z,1.00
2019-03-18T04:28:04.972Z,1.03
2019-03-18T04:33:10.114Z,1.10
2019-03-18T04:38:15.196Z,1.17
2019-03-18T04:43:20.419Z,1.07
2019-03-18T04:48:25.540Z,1.20
2019-03-18T04:53:30.696Z,1.10
2019-03-18T04:58:36.135Z,1.33
2019-03-18T05:03:41.512Z,1.50
2019-03-18T05:08:46.930Z,1.70
2019-03-18T05:13:52.463Z,1.60
2019-03-18T05:18:58.001Z,2.00
2019-03-18T05:24:03.146Z,1.73
2019-03-18T05:29:08.397Z,1.80
2019-03-18T05:34:13.325Z,2.10
2019-03-18T05:39:18.390Z,2.10
2019-03-18T05:44:23.970Z,2.70
2019-03-18T05:49:29.707Z,2.40
2019-03-18T05:54:34.765Z,2.37
2019-03-18T05:59:43.521Z,2.60
2019-03-18T06:04:48.956Z,2.67
2019-03-18T06:09:54.305Z,2.60
2019-03-18T06:14:59.631Z,2.30
2019-03-18T06:20:05.295Z,2.73
2019-03-18T06:25:10.256Z,2.70
2019-03-18T06:30:15.517Z,2.60
2019-03-18T06:35:20.793Z,2.60
2019-03-18T06:40:26.061Z,3.30
2019-03-18T06:45:31.049Z,3.47
2019-03-18T06:50:36.182Z,3.20
2019-03-18T06:55:41.341Z,3.40
2019-03-18T07:00:46.654Z,2.73
2019-03-18T07:05:51.934Z,2.70
2019-03-18T07:10:56.817Z,2.80
2019-03-18T07:16:01.998Z,2.70
2019-03-18T07:21:06.848Z,3.33
2019-03-18T07:26:12.035Z,3.07
2019-03-18T07:31:17.307Z,2.63
2019-03-18T07:36:22.482Z,3.70
2019-03-18T07:41:27.626Z,2.63
2019-03-18T07:46:32.633Z,2.43
2019-03-18T07:51:37.834Z,2.30
2019-03-18T07:56:43.092Z,2.60
2019-03-18T08:01:48.562Z,3.00
2019-03-18T08:06:53.749Z,2.80
2019-03-18T08:11:58.847Z,2.87
2019-03-18T08:17:04.143Z,3.17
2019-03-18T08:22:09.457Z,3.60
2019-03-18T08:27:14.923Z,3.13
2019-03-18T08:32:20.212Z,3.17
2019-03-18T08:37:25.453Z,4.00
2019-03-18T08:42:30.828Z,4.00
2019-03-18T08:47:36.078Z,4.00
2019-03-18T08:52:41.528Z,3.83
2019-03-18T08:57:47.002Z,2.80
2019-03-18T09:02:52.224Z,3.13
2019-03-18T09:07:57.717Z,3.77
2019-03-18T09:13:02.653Z,3.27
2019-03-18T09:18:08.218Z,2.97
2019-03-18T09:23:13.389Z,2.47
2019-03-18T09:28:18.377Z,1.20
2019-03-18T09:33:23.632Z,0.60
2019-03-18T09:38:29.119Z,1.43
2019-03-18T09:43:34.290Z,1.43
2019-03-18T09:48:39.632Z,1.70
2019-03-18T09:53:44.801Z,1.97
2019-03-18T09:58:49.597Z,2.40
2019-03-18T10:03:55.142Z,2.00
2019-03-18T10:09:00.334Z,4.67
2019-03-18T10:14:05.310Z,1.77
2019-03-18T10:19:10.233Z,1.83
2019-03-18T10:24:15.680Z,1.53
2019-03-18T10:29:24.060Z,2.00
2019-03-18T10:34:29.541Z,1.60
2019-03-18T10:39:35.808Z,1.83
2019-03-18T10:44:41.253Z,1.83
2019-03-18T10:49:46.679Z,1.97
2019-03-18T10:54:52.061Z,1.80
2019-03-18T10:59:57.365Z,1.50
2019-03-18T11:05:02.697Z,1.43
2019-03-18T11:10:08.286Z,1.30
2019-03-18T11:15:13.545Z,0.97
2019-03-18T11:20:18.462Z,1.30
2019-03-18T11:25:23.557Z,1.17
2019-03-18T11:30:28.789Z,0.97
2019-03-18T11:35:33.998Z,1.00
2019-03-18T11:40:39.160Z,1.10
2019-03-18T11:45:44.122Z,1.00
2019-03-18T11:50:49.586Z,0.90
2019-03-18T11:55:54.914Z,1.30
2019-03-18T12:00:59.857Z,1.03
2019-03-18T12:06:05.258Z,1.20
2019-03-18T12:11:10.354Z,1.07
2019-03-18T12:16:15.245Z,1.13
2019-03-18T12:21:21.709Z,1.23
2019-03-18T12:26:26.943Z,1.27
2019-03-18T12:31:32.093Z,1.20
2019-03-18T12:36:37.366Z,0.90
2019-03-18T12:41:42.385Z,1.20
2019-03-18T12:46:47.533Z,1.23
2019-03-18T12:51:52.746Z,1.03
2019-03-18T12:56:58.354Z,1.20
2019-03-18T13:02:03.442Z,1.20
2019-03-18T13:07:08.362Z,1.17
2019-03-18T13:12:13.414Z,1.20
2019-03-18T13:17:18.744Z,1.00
2019-03-18T13:22:24.158Z,1.07
2019-03-18T13:27:29.307Z,1.43
2019-03-18T13:32:34.284Z,1.53
2019-03-18T13:37:39.413Z,1.10
2019-03-18T13:42:44.660Z,1.23
2019-03-18T13:47:49.806Z,0.90
2019-03-18T13:52:54.793Z,1.10
2019-03-18T13:58:00.222Z,0.90
2019-03-18T14:03:05.533Z,0.80
2019-03-18T14:08:10.946Z,1.00
2019-03-18T14:13:16.161Z,1.37
2019-03-18T14:18:21.726Z,1.17
2019-03-18T14:23:26.993Z,1.20
2019-03-18T14:28:32.467Z,1.10
2019-03-18T14:33:37.377Z,0.90
2019-03-18T14:38:42.575Z,1.03
2019-03-18T14:43:47.622Z,0.93
2019-03-18T14:48:52.954Z,1.27
2019-03-18T14:53:58.101Z,0.87
2019-03-18T14:59:03.135Z,0.80
2019-03-18T15:04:08.512Z,0.93
2019-03-18T15:09:13.675Z,1.10
2019-03-18T15:14:18.989Z,2.20
2019-03-18T15:19:23.971Z,0.87
2019-03-18T15:24:29.249Z,0.80
2019-03-18T15:29:34.676Z,4.47
2019-03-18T15:34:39.774Z,1.57
2019-03-18T15:39:45.049Z,1.37
2019-03-18T15:44:50.410Z,1.20
2019-03-18T15:49:55.286Z,0.80
2019-03-18T15:55:00.578Z,1.30
2019-03-18T16:00:07.217Z,1.20
2019-03-18T16:05:12.422Z,4.23
2019-03-18T16:10:17.300Z,2.30
2019-03-18T16:15:24.978Z,4.20
2019-03-18T16:20:30.207Z,7.93
2019-03-18T16:25:35.048Z,3.13
2019-03-18T16:30:40.365Z,2.20
2019-03-18T16:35:48.057Z,1.90
2019-03-18T16:40:55.823Z,1.20
2019-03-18T16:46:01.046Z,1.13
2019-03-18T16:51:16.484Z,1.37
2019-03-18T16:56:22.309Z,0.83
2019-03-18T17:01:30.589Z,1.10
2019-03-18T17:06:39.193Z,0.77
2019-03-18T17:11:46.747Z,0.97
2019-03-18T17:16:52.206Z,3.50
2019-03-18T17:21:59.468Z,3.90
2019-03-18T17:27:04.854Z,8.73
2019-03-18T17:32:10.183Z,1.97
2019-03-18T17:37:15.625Z,2.53
2019-03-18T17:42:20.610Z,1.77
2019-03-18T17:47:25.931Z,1.40
2019-03-18T17:52:35.065Z,3.40
2019-03-18T17:57:39.990Z,2.30
2019-03-18T18:02:45.531Z,1.70
2019-03-18T18:07:50.581Z,3.27
2019-03-18T18:12:55.962Z,2.07
2019-03-18T18:18:01.597Z,1.63
2019-03-18T18:23:14.153Z,1.53
2019-03-18T18:28:13.807Z,3.50
2019-03-18T18:33:19.362Z,9.43
2019-03-18T18:38:24.348Z,7.33
2019-03-18T18:43:29.931Z,4.20
2019-03-18T18:48:34.778Z,2.97
2019-03-18T18:53:39.981Z,1.83
2019-03-18T18:58:45.528Z,1.27
2019-03-18T19:03:50.700Z,1.90
2019-03-18T19:08:56.042Z,2.60
2019-03-18T19:14:00.972Z,3.30
2019-03-18T19:19:08.193Z,6.00
2019-03-18T19:24:13.333Z,2.30
2019-03-18T19:29:19.001Z,2.40
2019-03-18T19:34:24.238Z,1.97
2019-03-18T19:39:29.576Z,2.17
2019-03-18T19:44:34.454Z,2.37
2019-03-18T19:49:38.769Z,2.37
2019-03-18T19:54:43.522Z,2.57
2019-03-18T19:59:48.560Z,2.80
2019-03-18T20:04:53.897Z,2.93
2019-03-18T20:09:59.117Z,2.00
2019-03-18T20:15:05.031Z,2.10
2019-03-18T20:20:11.752Z,1.90
2019-03-18T20:25:17.021Z,1.73
2019-03-18T20:30:22.376Z,1.77
2019-03-18T20:35:27.357Z,1.57
2019-03-18T20:40:32.793Z,1.47
2019-03-18T20:45:37.790Z,1.73
2019-03-18T20:50:42.929Z,1.80
2019-03-18T20:55:48.693Z,1.87
2019-03-18T21:00:53.917Z,1.83
2019-03-18T21:05:59.188Z,1.90
2019-03-18T21:11:04.945Z,1.70
2019-03-18T21:16:10.736Z,1.80
2019-03-18T21:21:16.186Z,2.27
2019-03-18T21:26:21.842Z,2.50
2019-03-18T21:31:26.995Z,1.77
2019-03-18T21:36:37.849Z,2.27
2019-03-18T21:41:39.140Z,2.00
2019-03-18T21:46:44.502Z,2.10
2019-03-18T21:51:49.970Z,2.63
2019-03-18T21:56:55.521Z,2.70
2019-03-18T22:02:00.692Z,2.83
2019-03-18T22:07:06.838Z,2.03
2019-03-18T22:12:11.657Z,2.00
2019-03-18T22:17:16.893Z,1.97
2019-03-18T22:22:21.971Z,2.00
2019-03-18T22:27:26.832Z,2.73
2019-03-18T22:32:32.061Z,2.70
2019-03-18T22:37:37.195Z,1.90
2019-03-18T22:42:42.081Z,2.03
2019-03-18T22:47:47.397Z,2.20
2019-03-18T22:52:52.557Z,2.00
2019-03-18T22:57:57.369Z,2.20
2019-03-18T23:03:02.637Z,2.03
2019-03-18T23:08:07.890Z,2.37
2019-03-18T23:13:13.151Z,1.97
2019-03-18T23:18:18.578Z,1.90
2019-03-18T23:23:23.983Z,2.27
2019-03-18T23:28:28.890Z,2.63
2019-03-18T23:33:33.973Z,2.60
2019-03-18T23:38:38.940Z,3.03
2019-03-18T23:43:43.880Z,2.80
2019-03-18T23:48:48.719Z,2.73
2019-03-18T23:53:53.521Z,3.00
2019-03-18T23:58:58.565Z,2.63
